Shore, Ohio
Current Conditions -  °F | °C
As of 3:45 PM on Sunday 23 Nov 2014 (Local Time) from KCGF Reporting Station
Broken Clouds Broken Clouds  
Wind Chill: 57°   Ceiling: 4000
Heat Index: 57°   Visibility: 10mi
Dew Point: 43°   Wind: 14mph
Humidity: 59%   Direction: 140°SE
Pressure: 29.8"   Gusts: NA
Location:  41.6037°N, 81.5239°W
Report Text: KCGF 232045Z 14012KT 10SM BKN040 BKN100 14/06 A2980
Loading
Personal Weather Stations






























Interactive Weather Map New forecast layout! Learn more

10-Day Weather Forecast

Advertisements
Track Severe Weather on mobile